Time;durP1;ratioP1;P1;durP2;ratioP2;P2;SDS_P1;SDS_P2;PMS_P1;PMS_P2;Temp;Humidity;BMP_temperature;BMP_pressure;BME280_temperature;BME280_humidity;BME280_pressure;Samples;Min_cycle;Max_cycle;Signal;HPM_P1;HPM_P2
2022/08/22 00:01:25;;;;;;;15.25;6.28;;;18.80;99.90;;;;;;4994422;28;20807;-85
2022/08/22 00:04:13;;;;;;;13.37;5.83;;;18.70;99.90;;;;;;5009460;28;20405;-85
2022/08/22 00:07:04;;;;;;;16.30;6.40;;;18.70;99.90;;;;;;4993689;28;20466;-83
2022/08/22 00:09:46;;;;;;;12.40;6.10;;;18.60;99.90;;;;;;4992616;28;20401;-85
2022/08/22 00:12:17;;;;;;;12.53;5.90;;;18.60;99.90;;;;;;4994255;28;20432;-83
2022/08/22 00:15:10;;;;;;;13.63;6.13;;;18.60;99.90;;;;;;4994417;28;20404;-83
2022/08/22 00:18:11;;;;;;;10.75;5.65;;;18.60;99.90;;;;;;4993419;28;20413;-85
2022/08/22 00:21:04;;;;;;;13.27;5.13;;;18.60;99.90;;;;;;4994233;28;20404;-85
2022/08/22 00:23:48;;;;;;;10.65;5.55;;;18.50;99.90;;;;;;4986495;28;20405;-84
2022/08/22 00:26:22;;;;;;;14.90;6.85;;;18.60;99.90;;;;;;4987171;28;20503;-85
2022/08/22 00:29:03;;;;;;;10.40;5.63;;;18.50;99.90;;;;;;4986425;28;20463;-86
2022/08/22 00:32:04;;;;;;;13.67;6.30;;;18.50;99.90;;;;;;4985503;28;20388;-83
2022/08/22 00:34:38;;;;;;;16.00;7.28;;;18.50;99.90;;;;;;4992611;28;20408;-85
2022/08/22 00:37:17;;;;;;;13.45;6.47;;;18.50;99.90;;;;;;4994481;28;20404;-84
2022/08/22 00:40:00;;;;;;;14.20;6.45;;;18.50;99.90;;;;;;4976641;28;20419;-85
2022/08/22 00:42:56;;;;;;;14.70;5.63;;;18.40;99.90;;;;;;4993921;28;20448;-84
2022/08/22 00:46:02;;;;;;;17.50;7.45;;;18.50;99.90;;;;;;4993913;28;20425;-84
2022/08/22 00:48:42;;;;;;;13.93;6.70;;;18.40;99.90;;;;;;4992769;28;20818;-85
2022/08/22 00:51:31;;;;;;;14.87;6.43;;;18.30;99.90;;;;;;4992267;28;20411;-84
2022/08/22 00:54:23;;;;;;;17.55;7.95;;;18.30;99.90;;;;;;4992276;28;20463;-85
2022/08/22 00:57:24;;;;;;;14.52;7.47;;;18.30;99.90;;;;;;4993359;28;20413;-85
2022/08/22 01:00:03;;;;;;;17.23;7.63;;;18.20;99.90;;;;;;5007242;28;20412;-85
2022/08/22 01:03:09;;;;;;;19.67;8.57;;;18.20;99.90;;;;;;4976420;28;20775;-85
2022/08/22 01:05:44;;;;;;;20.67;8.93;;;18.20;99.90;;;;;;4985675;28;20400;-84
2022/08/22 01:08:33;;;;;;;24.23;9.07;;;18.10;99.90;;;;;;4992082;28;20415;-86
2022/08/22 01:11:36;;;;;;;18.52;8.25;;;18.10;99.90;;;;;;4978440;28;20409;-85
2022/08/22 01:14:17;;;;;;;20.67;9.53;;;18.20;99.90;;;;;;4970106;28;20906;-84
2022/08/22 01:16:58;;;;;;;22.27;8.50;;;18.20;99.90;;;;;;4981269;28;20422;-84
2022/08/22 01:20:15;;;;;;;21.67;9.10;;;18.20;99.90;;;;;;4986486;28;20404;-85
2022/08/22 01:23:18;;;;;;;21.42;9.52;;;18.20;99.90;;;;;;4966678;28;20436;-84
2022/08/22 01:26:01;;;;;;;19.58;8.25;;;18.20;99.90;;;;;;4979501;28;20446;-84
2022/08/22 01:29:07;;;;;;;17.63;8.93;;;18.20;99.90;;;;;;5000879;28;20404;-85
2022/08/22 01:31:58;;;;;;;20.23;9.15;;;18.20;99.90;;;;;;4994488;28;20495;-85
2022/08/22 01:35:04;;;;;;;19.83;8.85;;;18.20;99.90;;;;;;4995904;28;20403;-85
2022/08/22 01:37:50;;;;;;;27.57;9.80;;;18.20;99.90;;;;;;4992689;28;20408;-84
2022/08/22 01:41:00;;;;;;;18.20;9.13;;;18.20;99.90;;;;;;4988745;28;20407;-85
2022/08/22 01:44:00;;;;;;;19.90;8.65;;;18.10;99.90;;;;;;4987193;28;20855;-84
2022/08/22 01:46:37;;;;;;;15.40;7.50;;;18.10;99.90;;;;;;4988749;28;20440;-84
2022/08/22 01:49:15;;;;;;;16.52;7.43;;;18.10;99.90;;;;;;4992510;28;20982;-84
2022/08/22 01:51:54;;;;;;;18.48;8.07;;;18.10;99.90;;;;;;4998047;28;20468;-82
2022/08/22 01:54:34;;;;;;;16.45;7.90;;;18.10;99.90;;;;;;4988628;28;20402;-85
2022/08/22 01:57:06;;;;;;;16.10;8.45;;;18.10;99.90;;;;;;4989723;28;20401;-85
2022/08/22 01:59:44;;;;;;;11.88;6.68;;;18.00;99.90;;;;;;4982862;28;20790;-85
2022/08/22 02:02:12;;;;;;;15.18;7.18;;;18.00;99.90;;;;;;4991959;28;20404;-85
2022/08/22 02:05:10;;;;;;;20.08;8.25;;;18.10;99.90;;;;;;4990949;28;20404;-85
2022/08/22 02:07:59;;;;;;;15.35;7.40;;;18.00;99.90;;;;;;4989794;28;20401;-85
2022/08/22 02:10:58;;;;;;;15.77;7.28;;;18.00;99.90;;;;;;4991950;28;20405;-84
2022/08/22 02:14:03;;;;;;;17.38;8.85;;;18.00;99.90;;;;;;4992114;28;20405;-85
2022/08/22 02:16:52;;;;;;;23.15;9.60;;;18.00;99.90;;;;;;4992655;28;20811;-84
2022/08/22 02:19:34;;;;;;;19.53;8.57;;;18.00;99.90;;;;;;4984630;28;20397;-82
2022/08/22 02:22:25;;;;;;;17.80;8.88;;;17.90;99.90;;;;;;4982041;28;20736;-83
2022/08/22 02:25:19;;;;;;;19.43;8.27;;;17.90;99.90;;;;;;5001258;28;20459;-83
2022/08/22 02:28:07;;;;;;;20.00;9.00;;;17.90;99.90;;;;;;4991907;28;20455;-85
2022/08/22 02:30:54;;;;;;;20.35;8.50;;;17.90;99.90;;;;;;4989736;28;20402;-84
2022/08/22 02:33:46;;;;;;;22.88;9.52;;;17.90;99.90;;;;;;4991863;28;20741;-86
2022/08/22 02:36:27;;;;;;;19.10;9.02;;;17.80;99.90;;;;;;4992526;28;20420;-85
2022/08/22 02:39:04;;;;;;;16.93;8.33;;;17.90;99.90;;;;;;4990840;28;20401;-83
2022/08/22 02:41:54;;;;;;;19.60;9.55;;;17.80;99.90;;;;;;4992271;28;20388;-84
2022/08/22 02:44:33;;;;;;;20.00;8.55;;;17.90;99.90;;;;;;4990372;28;20413;-83
2022/08/22 02:47:26;;;;;;;22.77;9.43;;;17.90;99.90;;;;;;4989049;28;20751;-83
2022/08/22 02:50:26;;;;;;;17.85;8.38;;;17.80;99.90;;;;;;4987530;28;20483;-84
2022/08/22 02:53:01;;;;;;;16.95;7.10;;;17.90;99.90;;;;;;4990166;28;20489;-85
2022/08/22 02:55:48;;;;;;;17.77;8.27;;;17.90;99.90;;;;;;4991668;28;20419;-82
2022/08/22 02:58:41;;;;;;;16.65;7.20;;;17.90;99.90;;;;;;4991762;28;20871;-84
2022/08/22 03:01:23;;;;;;;15.60;7.20;;;17.90;99.90;;;;;;4987276;28;20401;-84
2022/08/22 03:04:12;;;;;;;19.30;8.63;;;17.90;99.90;;;;;;4988926;28;20413;-83
2022/08/22 03:06:59;;;;;;;16.15;7.78;;;17.80;99.90;;;;;;4981784;28;20405;-82
2022/08/22 03:09:38;;;;;;;17.38;7.93;;;17.80;99.90;;;;;;4989476;28;20472;-84
2022/08/22 03:12:16;;;;;;;22.60;8.85;;;17.80;99.90;;;;;;4991584;28;20408;-85
2022/08/22 03:14:59;;;;;;;18.92;8.98;;;17.80;99.90;;;;;;4991422;28;20463;-84
2022/08/22 03:17:37;;;;;;;18.40;8.60;;;17.80;99.90;;;;;;4991546;28;20447;-84
2022/08/22 03:20:09;;;;;;;21.85;9.35;;;17.80;99.90;;;;;;5002942;28;20471;-84
2022/08/22 03:22:55;;;;;;;22.33;9.32;;;17.80;99.90;;;;;;4991433;28;20392;-83
2022/08/22 03:25:35;;;;;;;16.92;8.23;;;17.80;99.90;;;;;;4986525;28;20883;-83
2022/08/22 03:28:13;;;;;;;16.85;7.70;;;17.80;99.90;;;;;;4987562;28;20393;-80
2022/08/22 03:30:58;;;;;;;17.67;9.00;;;17.80;99.90;;;;;;4991477;28;20388;-84
2022/08/22 03:33:29;;;;;;;19.35;7.82;;;17.80;99.90;;;;;;4989495;28;20747;-85
2022/08/22 03:36:05;;;;;;;20.00;8.70;;;17.80;99.90;;;;;;4990899;28;20392;-83
2022/08/22 03:38:33;;;;;;;20.27;8.18;;;17.80;99.90;;;;;;4991194;28;20405;-83
2022/08/22 03:41:38;;;;;;;20.15;9.23;;;17.80;99.90;;;;;;5007770;28;20412;-84
2022/08/22 03:44:19;;;;;;;17.30;7.78;;;17.90;99.90;;;;;;4994770;28;20787;-83
2022/08/22 03:47:32;;;;;;;19.75;8.80;;;17.80;99.90;;;;;;4994852;28;20395;-84
2022/08/22 03:50:11;;;;;;;16.08;7.50;;;17.80;99.90;;;;;;4980017;28;20405;-84
2022/08/22 03:53:06;;;;;;;25.35;8.60;;;17.80;99.90;;;;;;4991344;28;20391;-83
2022/08/22 03:56:09;;;;;;;17.47;7.60;;;17.90;99.90;;;;;;4993198;28;20408;-84
2022/08/22 03:59:09;;;;;;;17.08;8.07;;;17.90;99.90;;;;;;4987077;28;20443;-84
2022/08/22 04:01:55;;;;;;;16.83;8.25;;;17.90;99.90;;;;;;4990212;28;20415;-83
2022/08/22 04:04:59;;;;;;;19.55;8.70;;;17.80;99.90;;;;;;4992376;28;20423;-83
2022/08/22 04:07:37;;;;;;;27.48;9.75;;;17.80;99.90;;;;;;5005525;28;20397;-84
2022/08/22 04:10:44;;;;;;;17.23;8.30;;;17.90;99.90;;;;;;4994867;28;20420;-82
2022/08/22 04:13:57;;;;;;;18.02;8.40;;;17.80;99.90;;;;;;4970285;28;20413;-83
2022/08/22 04:17:00;;;;;;;18.92;7.32;;;17.90;99.90;;;;;;4990518;28;20393;-83
2022/08/22 04:19:54;;;;;;;21.60;8.10;;;17.90;99.90;;;;;;4994084;28;20401;-83
2022/08/22 04:22:43;;;;;;;19.88;8.35;;;17.90;99.90;;;;;;4993956;28;20424;-84
2022/08/22 04:25:22;;;;;;;19.02;8.45;;;17.90;99.90;;;;;;4992527;28;20415;-82
2022/08/22 04:28:22;;;;;;;19.23;8.27;;;17.90;99.90;;;;;;4992826;28;20488;-82
2022/08/22 04:31:10;;;;;;;20.50;8.75;;;17.90;99.90;;;;;;4961781;28;20409;-83
2022/08/22 04:34:07;;;;;;;22.33;8.38;;;17.90;99.90;;;;;;4993552;28;20759;-82
2022/08/22 04:36:44;;;;;;;19.33;8.73;;;17.90;99.90;;;;;;4966364;28;20388;-81
2022/08/22 04:39:18;;;;;;;18.02;8.38;;;17.90;99.90;;;;;;4994127;28;20483;-83
2022/08/22 04:42:01;;;;;;;15.57;7.72;;;17.90;99.90;;;;;;4993571;28;20500;-82
2022/08/22 04:44:52;;;;;;;18.52;8.68;;;18.00;99.90;;;;;;4991211;28;20411;-84
2022/08/22 04:47:28;;;;;;;18.40;8.20;;;18.00;99.90;;;;;;4993509;28;20473;-83
2022/08/22 04:50:03;;;;;;;20.08;8.68;;;18.00;99.90;;;;;;5008338;28;20946;-83
2022/08/22 04:53:09;;;;;;;18.35;8.48;;;18.00;99.90;;;;;;4990876;28;20397;-82
2022/08/22 04:55:49;;;;;;;18.52;8.75;;;18.00;99.90;;;;;;4997983;28;20449;-84
2022/08/22 04:58:54;;;;;;;20.83;10.38;;;18.10;99.90;;;;;;5000440;28;20423;-85
2022/08/22 05:01:25;;;;;;;21.08;8.52;;;18.10;99.90;;;;;;4979620;28;20393;-84
2022/08/22 05:04:06;;;;;;;61.80;11.32;;;18.10;99.90;;;;;;4993439;28;20447;-84
2022/08/22 05:06:39;;;;;;;19.33;8.23;;;18.10;99.90;;;;;;5007424;28;20752;-85
2022/08/22 05:09:14;;;;;;;17.83;8.05;;;18.20;99.90;;;;;;4990409;28;20745;-84
2022/08/22 05:11:45;;;;;;;30.70;12.65;;;18.10;99.90;;;;;;4993357;28;20404;-87
2022/08/22 05:14:38;;;;;;;20.33;8.53;;;18.30;99.90;;;;;;5002408;28;20405;-85
2022/08/22 05:17:12;;;;;;;18.25;8.35;;;18.30;99.90;;;;;;5006302;28;20416;-85
2022/08/22 05:19:52;;;;;;;19.40;8.15;;;18.30;99.90;;;;;;4993540;28;20451;-84
2022/08/22 05:22:33;;;;;;;17.30;8.13;;;18.30;99.90;;;;;;4993058;28;20400;-85
2022/08/22 05:25:14;;;;;;;18.43;7.50;;;18.40;99.90;;;;;;4974588;28;20468;-85
2022/08/22 05:27:47;;;;;;;19.25;7.88;;;18.40;99.90;;;;;;4988583;28;20492;-85
2022/08/22 05:30:24;;;;;;;20.05;7.90;;;18.40;99.90;;;;;;5007313;28;20424;-85
2022/08/22 05:33:13;;;;;;;18.10;7.73;;;18.50;99.90;;;;;;4989456;28;20895;-85
2022/08/22 05:35:53;;;;;;;19.98;7.85;;;18.50;99.90;;;;;;4989020;28;20401;-84
2022/08/22 05:38:33;;;;;;;18.42;7.93;;;18.50;99.90;;;;;;5005150;28;20440;-85
2022/08/22 05:41:06;;;;;;;16.92;7.07;;;18.50;99.90;;;;;;4984575;28;20980;-85
2022/08/22 05:43:40;;;;;;;17.43;7.10;;;18.50;99.90;;;;;;4990035;28;20468;-86
2022/08/22 05:46:41;;;;;;;18.50;7.72;;;18.60;99.90;;;;;;4992567;28;20441;-85
2022/08/22 05:49:21;;;;;;;21.08;7.68;;;18.60;99.90;;;;;;4960572;28;20405;-85
2022/08/22 05:52:18;;;;;;;22.15;8.15;;;18.70;99.90;;;;;;4991444;28;20818;-84
2022/08/22 05:55:17;;;;;;;18.92;7.50;;;18.70;99.90;;;;;;4968385;28;20416;-86
2022/08/22 05:57:50;;;;;;;18.58;7.68;;;18.70;99.90;;;;;;4966247;28;20424;-85
2022/08/22 06:00:21;;;;;;;19.00;7.55;;;18.80;99.90;;;;;;4987375;28;20404;-86
2022/08/22 06:03:19;;;;;;;18.47;7.40;;;18.80;99.90;;;;;;4990942;28;20532;-84
2022/08/22 06:05:54;;;;;;;18.83;7.83;;;18.80;99.90;;;;;;4989895;28;20434;-84
2022/08/22 06:08:38;;;;;;;19.10;7.18;;;18.80;99.90;;;;;;4990848;28;20855;-85
2022/08/22 06:11:24;;;;;;;17.15;7.60;;;18.90;99.90;;;;;;5007345;28;20404;-85
2022/08/22 06:14:29;;;;;;;18.00;7.35;;;18.90;99.90;;;;;;4975547;28;20462;-85
2022/08/22 06:17:21;;;;;;;22.63;8.48;;;19.00;99.90;;;;;;4991506;28;20389;-85
2022/08/22 06:19:51;;;;;;;20.20;8.30;;;19.10;99.90;;;;;;4991115;28;20428;-85
2022/08/22 06:22:24;;;;;;;16.25;7.50;;;19.10;99.90;;;;;;4989653;28;20406;-85
2022/08/22 06:25:04;;;;;;;19.08;7.15;;;19.10;99.90;;;;;;4989419;28;20504;-85
2022/08/22 06:27:33;;;;;;;22.58;8.00;;;19.10;99.90;;;;;;5009805;28;20490;-85
2022/08/22 06:30:03;;;;;;;17.38;7.68;;;19.10;99.90;;;;;;4991957;28;20898;-86
2022/08/22 06:32:41;;;;;;;16.48;7.95;;;19.10;99.90;;;;;;4971157;28;20469;-86
2022/08/22 06:38:32;;;;;;;18.50;7.68;;;19.20;99.90;;;;;;4980168;28;20408;-86
2022/08/22 06:41:05;;;;;;;17.50;7.60;;;19.20;99.90;;;;;;4991805;28;20443;-85
2022/08/22 06:43:57;;;;;;;26.27;7.88;;;19.20;99.90;;;;;;4986321;28;20986;-85
2022/08/22 06:46:29;;;;;;;22.67;9.05;;;19.30;99.90;;;;;;4982745;28;20901;-85
2022/08/22 06:48:59;;;;;;;22.60;8.23;;;19.30;99.90;;;;;;4997467;28;20397;-84
2022/08/22 06:51:28;;;;;;;21.15;8.88;;;19.30;99.90;;;;;;4991500;28;20435;-86
2022/08/22 06:54:03;;;;;;;21.17;8.25;;;19.20;99.90;;;;;;4991339;28;20444;-85
2022/08/22 06:56:43;;;;;;;18.67;8.20;;;19.30;99.90;;;;;;4991954;28;20491;-83
2022/08/22 06:59:16;;;;;;;18.98;8.60;;;19.30;99.90;;;;;;4990466;28;20879;-85
2022/08/22 07:02:08;;;;;;;21.05;7.72;;;19.30;99.90;;;;;;4991801;28;20759;-85
2022/08/22 07:04:36;;;;;;;27.60;8.60;;;19.30;99.90;;;;;;4953343;28;20408;-85
2022/08/22 07:07:04;;;;;;;23.97;8.23;;;19.30;99.90;;;;;;4991403;28;20455;-85
2022/08/22 07:09:39;;;;;;;24.92;8.43;;;19.30;99.90;;;;;;4990876;28;20480;-83
2022/08/22 07:12:17;;;;;;;24.53;7.60;;;19.20;99.90;;;;;;4991616;28;20405;-83
2022/08/22 07:14:48;;;;;;;23.58;8.02;;;19.30;99.90;;;;;;4991422;28;20401;-84
2022/08/22 07:17:20;;;;;;;21.13;8.50;;;19.20;99.90;;;;;;4995590;28;20471;-83
2022/08/22 07:20:15;;;;;;;21.93;7.00;;;19.30;99.90;;;;;;4995428;28;20419;-84
2022/08/22 07:22:56;;;;;;;17.97;7.20;;;19.30;99.90;;;;;;4988285;28;20418;-85
2022/08/22 07:25:25;;;;;;;20.27;7.47;;;19.40;99.90;;;;;;5000464;28;20410;-85
2022/08/22 07:28:19;;;;;;;19.60;7.85;;;19.40;99.90;;;;;;4994885;28;20451;-84
2022/08/22 07:31:32;;;;;;;20.17;8.13;;;19.40;99.90;;;;;;4991111;28;20380;-84
2022/08/22 07:34:27;;;;;;;24.13;8.13;;;19.40;99.90;;;;;;4992207;28;20799;-84
2022/08/22 07:37:13;;;;;;;20.02;8.07;;;19.40;99.90;;;;;;5001428;28;20463;-83
2022/08/22 07:40:02;;;;;;;22.08;7.28;;;19.50;99.90;;;;;;4995485;28;20425;-83
2022/08/22 07:42:49;;;;;;;28.83;9.05;;;19.50;99.90;;;;;;4994928;28;20408;-84
2022/08/22 07:45:46;;;;;;;22.83;7.40;;;19.50;99.90;;;;;;4994716;28;20415;-83
2022/08/22 07:48:22;;;;;;;19.17;7.05;;;19.60;99.90;;;;;;4984736;28;20488;-85
2022/08/22 07:51:01;;;;;;;17.23;6.88;;;19.60;99.90;;;;;;4994422;28;20496;-85
2022/08/22 07:53:40;;;;;;;21.50;8.20;;;19.70;99.90;;;;;;4993627;28;20891;-84
2022/08/22 07:56:23;;;;;;;23.70;7.97;;;19.70;99.90;;;;;;4993435;28;20449;-85
2022/08/22 07:59:08;;;;;;;21.85;8.13;;;19.80;99.90;;;;;;4991715;28;20408;-84
2022/08/22 08:01:45;;;;;;;21.42;7.85;;;19.80;99.90;;;;;;4992802;28;20405;-84
2022/08/22 08:04:19;;;;;;;20.77;7.90;;;19.80;99.90;;;;;;4994572;28;20474;-84
2022/08/22 08:06:51;;;;;;;17.30;7.78;;;19.80;99.90;;;;;;4985731;28;21010;-82
2022/08/22 08:09:20;;;;;;;21.60;8.27;;;19.90;99.90;;;;;;4991938;28;20457;-83
2022/08/22 08:11:52;;;;;;;22.48;7.80;;;19.90;99.90;;;;;;4993145;28;20389;-84
2022/08/22 08:14:22;;;;;;;22.90;7.45;;;19.90;99.90;;;;;;4993172;28;20405;-84
2022/08/22 08:17:16;;;;;;;20.40;7.20;;;19.90;99.90;;;;;;4995058;28;20766;-83
2022/08/22 08:19:46;;;;;;;21.20;7.75;;;19.90;99.90;;;;;;4993290;28;20483;-84
2022/08/22 08:22:23;;;;;;;18.30;7.13;;;20.00;99.90;;;;;;5009108;28;20408;-84
2022/08/22 08:24:54;;;;;;;19.58;7.05;;;20.00;99.90;;;;;;5009139;28;20404;-81
2022/08/22 08:30:20;;;;;;;20.50;7.40;;;20.10;99.90;;;;;;4959723;28;20408;-82
2022/08/22 08:32:56;;;;;;;17.77;6.75;;;20.10;99.90;;;;;;4992682;28;20405;-84
2022/08/22 08:36:02;;;;;;;19.58;7.43;;;20.10;99.90;;;;;;4986307;28;20495;-84
2022/08/22 08:39:01;;;;;;;21.70;7.20;;;20.20;99.90;;;;;;4992805;28;20841;-84
2022/08/22 08:41:32;;;;;;;20.42;6.97;;;20.20;99.90;;;;;;5009072;28;20535;-83
2022/08/22 08:44:25;;;;;;;17.97;7.17;;;20.20;99.90;;;;;;4991773;28;20405;-84
2022/08/22 08:47:31;;;;;;;22.20;7.30;;;20.20;99.90;;;;;;4984738;28;20416;-82
2022/08/22 08:50:20;;;;;;;20.33;7.45;;;20.30;99.90;;;;;;4978901;28;20417;-82
2022/08/22 08:53:05;;;;;;;18.63;7.30;;;20.30;99.90;;;;;;4989401;28;20410;-83
2022/08/22 08:56:00;;;;;;;19.95;6.88;;;20.40;99.90;;;;;;4992790;28;20923;-83
2022/08/22 08:58:36;;;;;;;19.15;7.45;;;20.40;99.90;;;;;;4988909;28;20400;-82
2022/08/22 09:01:25;;;;;;;19.38;7.03;;;20.40;99.90;;;;;;4991374;28;20479;-80
2022/08/22 09:04:27;;;;;;;17.63;7.13;;;20.40;99.90;;;;;;5007273;28;20389;-82
2022/08/22 09:07:23;;;;;;;22.52;7.57;;;20.40;99.90;;;;;;5005947;28;20444;-81
2022/08/22 09:10:08;;;;;;;19.67;7.40;;;20.50;99.90;;;;;;4993893;28;20484;-81
2022/08/22 09:13:05;;;;;;;21.75;7.22;;;20.50;99.90;;;;;;4992056;28;20413;-85
2022/08/22 09:16:05;;;;;;;21.03;7.30;;;20.50;99.90;;;;;;4992752;28;20404;-84
2022/08/22 09:18:57;;;;;;;17.45;6.78;;;20.60;99.90;;;;;;4993340;28;20412;-85
2022/08/22 09:21:46;;;;;;;19.70;7.30;;;20.60;99.90;;;;;;4991539;28;20909;-85
2022/08/22 09:24:38;;;;;;;17.13;6.95;;;20.70;99.90;;;;;;4993122;28;20760;-84
2022/08/22 09:27:41;;;;;;;20.90;7.38;;;20.70;99.90;;;;;;4986715;28;20503;-84
2022/08/22 09:30:16;;;;;;;22.67;7.50;;;20.70;99.90;;;;;;4987408;28;20443;-84
2022/08/22 09:33:08;;;;;;;20.10;6.90;;;20.80;99.90;;;;;;5006456;28;20499;-84
2022/08/22 09:35:42;;;;;;;23.45;7.20;;;20.80;99.90;;;;;;4989418;28;20400;-84
2022/08/22 09:38:21;;;;;;;21.93;7.70;;;20.90;99.90;;;;;;4987803;28;20459;-84
2022/08/22 09:40:59;;;;;;;19.00;7.28;;;20.90;99.90;;;;;;4972542;28;20395;-85
2022/08/22 09:43:46;;;;;;;22.15;7.85;;;21.00;99.90;;;;;;4991103;28;20455;-84
2022/08/22 09:46:31;;;;;;;22.50;7.43;;;21.00;99.90;;;;;;4989623;28;20412;-81
2022/08/22 09:49:06;;;;;;;17.37;6.80;;;21.00;99.90;;;;;;4990871;28;20461;-83
2022/08/22 09:52:34;;;;;;;19.52;6.97;;;21.10;99.90;;;;;;4992530;28;20439;-83
2022/08/22 09:55:37;;;;;;;25.30;7.72;;;21.10;99.90;;;;;;4924276;29;20497;-83
2022/08/22 09:58:44;;;;;;;20.83;7.17;;;21.20;99.90;;;;;;4975107;28;20417;-84
2022/08/22 10:01:47;;;;;;;18.77;6.55;;;21.20;99.90;;;;;;4987556;28;20412;-83
2022/08/22 10:04:26;;;;;;;19.37;6.67;;;21.30;99.90;;;;;;4989021;28;20420;-83
2022/08/22 10:07:06;;;;;;;20.73;7.35;;;21.40;99.90;;;;;;4984788;28;20405;-84
2022/08/22 10:10:10;;;;;;;18.80;6.68;;;21.40;99.90;;;;;;5007251;28;20416;-84
2022/08/22 10:13:14;;;;;;;20.70;6.93;;;21.50;99.90;;;;;;5006630;28;20429;-84
2022/08/22 10:15:53;;;;;;;19.33;6.80;;;21.50;99.90;;;;;;4990102;28;20396;-83
2022/08/22 10:18:49;;;;;;;19.67;6.78;;;21.60;99.90;;;;;;4992100;28;20420;-84
2022/08/22 10:21:38;;;;;;;21.58;6.50;;;21.60;99.90;;;;;;4986698;28;20420;-84
2022/08/22 10:24:15;;;;;;;23.42;7.32;;;21.60;99.90;;;;;;4991877;28;20431;-84
2022/08/22 10:26:55;;;;;;;21.08;7.25;;;21.60;99.90;;;;;;4990771;28;20416;-85
2022/08/22 10:29:54;;;;;;;23.58;7.57;;;21.60;99.90;;;;;;4991841;28;20443;-83
2022/08/22 10:32:40;;;;;;;22.42;7.65;;;21.60;99.90;;;;;;4983658;28;20404;-85
2022/08/22 10:35:29;;;;;;;24.07;7.30;;;21.70;99.90;;;;;;4990702;28;20416;-84
2022/08/22 10:38:24;;;;;;;17.70;7.20;;;21.70;99.90;;;;;;4948840;28;20406;-84
2022/08/22 10:41:11;;;;;;;18.60;6.82;;;21.70;99.90;;;;;;4980845;28;20820;-84
2022/08/22 10:44:01;;;;;;;27.73;7.57;;;21.70;99.90;;;;;;4985237;28;20419;-81
2022/08/22 10:46:53;;;;;;;17.60;6.68;;;21.70;99.90;;;;;;4990890;28;20455;-84
2022/08/22 10:49:34;;;;;;;20.60;6.90;;;21.80;99.90;;;;;;4992248;28;20512;-83
2022/08/22 10:52:13;;;;;;;22.60;6.47;;;21.90;99.90;;;;;;5004843;28;20408;-83
2022/08/22 10:54:53;;;;;;;24.33;7.05;;;21.90;99.90;;;;;;4995780;28;20412;-84
2022/08/22 10:57:47;;;;;;;22.17;7.28;;;21.90;99.90;;;;;;4996042;28;20451;-83
2022/08/22 11:00:56;;;;;;;21.02;7.00;;;21.90;99.90;;;;;;4986636;28;20457;-84
2022/08/22 11:03:43;;;;;;;19.60;6.97;;;22.00;99.90;;;;;;4995124;28;20404;-84
2022/08/22 11:06:26;;;;;;;19.23;7.35;;;22.10;99.90;;;;;;4995666;28;20436;-84
2022/08/22 11:09:09;;;;;;;24.20;6.95;;;22.10;99.90;;;;;;4995118;28;20409;-84
2022/08/22 11:11:53;;;;;;;21.93;6.60;;;22.10;99.90;;;;;;4994349;28;20395;-84
2022/08/22 11:14:36;;;;;;;23.63;6.93;;;22.10;99.90;;;;;;4994218;28;20411;-83
2022/08/22 11:17:13;;;;;;;18.23;6.82;;;22.20;99.90;;;;;;4986706;28;20381;-84
2022/08/22 11:20:24;;;;;;;32.92;8.45;;;22.30;99.90;;;;;;4995272;28;20467;-84
2022/08/22 11:22:58;;;;;;;20.15;6.80;;;22.40;99.90;;;;;;4992186;28;20436;-85
2022/08/22 11:25:50;;;;;;;23.10;6.95;;;22.40;99.90;;;;;;5006735;28;20415;-84
2022/08/22 11:28:23;;;;;;;24.45;6.72;;;22.50;99.90;;;;;;4986305;28;20400;-84
2022/08/22 11:30:59;;;;;;;21.05;6.78;;;22.50;99.90;;;;;;4993939;28;20401;-81
2022/08/22 11:33:57;;;;;;;20.17;6.82;;;22.60;99.90;;;;;;5006400;28;20824;-83
2022/08/22 11:36:49;;;;;;;22.40;7.32;;;22.70;99.90;;;;;;5002925;28;20436;-84
2022/08/22 11:39:24;;;;;;;21.45;7.43;;;22.70;99.90;;;;;;5004985;28;20399;-84
2022/08/22 11:42:01;;;;;;;24.03;7.60;;;22.70;99.90;;;;;;4993899;28;20411;-84
2022/08/22 11:44:35;;;;;;;23.08;7.75;;;22.70;99.90;;;;;;4986529;28;20401;-84
2022/08/22 11:47:21;;;;;;;24.77;7.57;;;22.80;99.90;;;;;;5001375;28;20436;-83
2022/08/22 11:50:13;;;;;;;25.00;7.53;;;22.80;99.90;;;;;;4978177;28;20448;-84
2022/08/22 11:53:10;;;;;;;23.52;6.50;;;22.90;99.90;;;;;;4993329;28;20405;-83
2022/08/22 11:55:47;;;;;;;18.10;6.90;;;22.90;99.90;;;;;;5001851;28;20455;-84
2022/08/22 11:58:37;;;;;;;24.05;7.63;;;23.00;99.90;;;;;;4990474;28;20767;-83
2022/08/22 12:01:11;;;;;;;24.65;7.15;;;23.00;99.90;;;;;;4993661;28;20414;-83
2022/08/22 12:04:14;;;;;;;24.25;7.03;;;23.10;99.90;;;;;;4993188;28;20404;-83
2022/08/22 12:07:17;;;;;;;24.40;7.20;;;23.20;99.90;;;;;;4989851;28;20416;-83
2022/08/22 12:09:58;;;;;;;25.13;7.20;;;23.20;99.90;;;;;;4974286;28;20426;-83
2022/08/22 12:13:03;;;;;;;22.50;6.82;;;23.20;99.90;;;;;;4993982;28;20396;-84
2022/08/22 12:15:39;;;;;;;21.60;7.25;;;23.10;99.90;;;;;;4991657;28;20409;-84
2022/08/22 12:18:28;;;;;;;23.60;7.28;;;23.20;99.90;;;;;;4994747;28;20463;-83
2022/08/22 12:21:23;;;;;;;22.48;7.20;;;23.10;99.90;;;;;;4991593;28;20392;-84
2022/08/22 12:23:54;;;;;;;18.15;7.28;;;23.20;99.90;;;;;;4989517;28;22178;-85
2022/08/22 12:27:02;;;;;;;25.05;8.07;;;23.20;99.90;;;;;;4991942;28;20405;-85
2022/08/22 12:29:54;;;;;;;21.87;7.47;;;23.10;99.90;;;;;;5008405;28;20412;-85
2022/08/22 12:32:32;;;;;;;21.77;7.38;;;23.10;99.90;;;;;;4985846;28;20435;-84
2022/08/22 12:35:06;;;;;;;21.13;7.15;;;23.20;99.90;;;;;;5000441;28;20432;-85
2022/08/22 12:38:06;;;;;;;25.80;8.03;;;23.20;99.90;;;;;;4985527;28;20404;-84
2022/08/22 12:41:12;;;;;;;20.95;7.60;;;23.20;99.90;;;;;;4990390;28;20411;-84
2022/08/22 12:44:29;;;;;;;24.30;7.47;;;23.20;99.90;;;;;;4970099;28;20450;-84
2022/08/22 12:47:16;;;;;;;24.45;8.18;;;23.30;99.90;;;;;;4987104;28;20413;-83
2022/08/22 12:50:11;;;;;;;22.55;7.78;;;23.30;99.90;;;;;;4991210;28;20396;-85
2022/08/22 12:53:14;;;;;;;27.05;7.28;;;23.30;99.90;;;;;;4987527;28;20400;-85
2022/08/22 12:55:56;;;;;;;25.73;7.55;;;23.40;99.90;;;;;;4979417;28;20421;-84
2022/08/22 12:58:31;;;;;;;25.42;8.20;;;23.40;99.90;;;;;;4987414;28;20493;-83
2022/08/22 13:01:05;;;;;;;22.33;7.07;;;23.50;99.90;;;;;;4986726;28;20426;-84
2022/08/22 13:03:42;;;;;;;21.23;7.45;;;23.50;99.90;;;;;;4984211;28;20962;-84
2022/08/22 13:06:40;;;;;;;18.50;7.70;;;23.60;99.90;;;;;;4991322;28;20763;-85
2022/08/22 13:09:28;;;;;;;21.80;7.13;;;23.70;99.90;;;;;;4984897;28;20417;-83
2022/08/22 13:12:14;;;;;;;24.17;7.65;;;23.70;99.90;;;;;;4992004;28;20459;-84
2022/08/22 13:14:52;;;;;;;19.70;6.37;;;23.60;99.90;;;;;;4994962;28;20408;-85
2022/08/22 13:17:21;;;;;;;25.80;7.72;;;23.60;99.90;;;;;;4982825;28;20767;-84
2022/08/22 13:20:07;;;;;;;23.98;7.68;;;23.60;99.90;;;;;;4996831;28;20413;-84
2022/08/22 13:22:40;;;;;;;22.10;7.53;;;23.60;99.90;;;;;;4991713;28;20417;-83
2022/08/22 13:25:21;;;;;;;22.67;7.80;;;23.60;99.90;;;;;;4992477;28;20815;-83
2022/08/22 13:27:59;;;;;;;24.30;7.25;;;23.60;99.90;;;;;;4993159;28;20409;-84
2022/08/22 13:30:37;;;;;;;24.83;7.40;;;23.60;99.90;;;;;;4991661;28;20420;-83
2022/08/22 13:33:15;;;;;;;22.40;7.82;;;23.60;99.90;;;;;;4991470;28;20440;-83
2022/08/22 13:35:48;;;;;;;26.98;8.00;;;23.50;99.90;;;;;;5010469;28;20441;-83
2022/08/22 13:38:28;;;;;;;24.75;7.72;;;23.60;99.90;;;;;;4988557;28;20410;-84
2022/08/22 13:40:58;;;;;;;25.92;7.75;;;23.60;99.90;;;;;;4993011;28;20741;-83
2022/08/22 13:43:47;;;;;;;21.25;7.63;;;23.60;99.90;;;;;;5007189;28;20475;-84
2022/08/22 13:46:24;;;;;;;19.90;7.00;;;23.60;99.90;;;;;;4991244;28;20400;-84
2022/08/22 13:48:57;;;;;;;22.80;7.10;;;23.50;99.90;;;;;;4991517;28;20475;-84
2022/08/22 13:51:34;;;;;;;23.75;7.20;;;23.50;99.90;;;;;;4992031;28;20408;-84
2022/08/22 13:54:11;;;;;;;21.90;7.70;;;23.50;99.90;;;;;;4991130;28;20949;-83
2022/08/22 13:57:10;;;;;;;24.63;8.13;;;23.50;99.90;;;;;;4991179;28;20504;-84
2022/08/22 13:59:45;;;;;;;26.17;7.93;;;23.60;99.90;;;;;;5001349;28;20571;-84
2022/08/22 14:02:50;;;;;;;23.10;7.63;;;23.60;99.90;;;;;;4992201;28;20422;-83
2022/08/22 14:05:23;;;;;;;21.58;7.40;;;23.60;99.90;;;;;;4985525;28;20513;-84
2022/08/22 14:08:06;;;;;;;23.88;7.72;;;23.70;99.90;;;;;;4990527;28;20413;-83
2022/08/22 14:10:49;;;;;;;24.75;7.88;;;23.70;99.90;;;;;;4997266;28;20412;-84
2022/08/22 14:13:41;;;;;;;42.83;9.15;;;23.80;99.90;;;;;;4989895;28;20397;-84
2022/08/22 14:16:44;;;;;;;27.30;7.88;;;24.10;99.90;;;;;;4992193;28;20384;-84